Impacts TAF Board INFO
FOR SITUATIONAL AWARENESS. NOT TO BE USED FOR FLIGHT PLANNING PURPOSES.
IDs:

KJFK - New York/Kennedy Int, NY, US

Issued at 2102 UTC 25 May 2018
Updated at 2226 UTC 25 May 2018
Potential Impact None Slight Moderate High
Time2151Z 25/23Z 26/00Z 26/01Z 26/02Z 26/03Z 26/04Z 26/05Z 26/06Z 26/07Z 26/08Z 26/09Z 26/10Z 26/11Z>>
Type OBS PRVL PRVL PRVL PRVL PRVL PRVL PRVL PRVL PRVL PRVL PRVL PRVL PRVL
VIS 10 >6 >6 >6 >6 >6 >6 >6 >6 >6 >6 >6 >6 >6
CIG 250 -- -- -- -- -- -- -- -- -- -- -- -- --
Cover BKN FEW FEW FEW FEW FEW FEW FEW SCT SCT SCT SCT SCT SCT
FltCat VFR VFR VFR VFR VFR VFR VFR VFR VFR VFR VFR VFR VFR VFR
WX -- -- -- -- -- -- -- -- -- -- -- -- -- --
WDir 190 190 200 200 200 220 220 220 220 220 220 220 220 220
WSpd 13 15 13 13 13 11 11 11 8 8 8 8 8 8
WGst -- -- -- -- -- -- -- -- -- -- -- -- -- --

Raw TAF
KJFK 252102Z 2521/2624 19015KT P6SM FEW060 FEW250
  FM260000 20013KT P6SM FEW250
  FM260300 22011KT P6SM FEW250
  FM260600 22008KT P6SM SCT250
  TEMPO 2612/2615 5SM HZ
  FM261800 19012KT P6SM SCT060 BKN150


Raw METAR
KJFK 252151Z 19013KT 10SM FEW065 BKN250 23/17 A2985 RMK AO2 SLP109 T02330167
KJFK 252051Z 18012KT 10SM FEW065 BKN250 24/17 A2987 RMK AO2 SLP114 T02390172 58025
KJFK 251951Z 19015KT 10SM FEW065 BKN250 24/17 A2990 RMK AO2 SLP124 T02440167

METAR Board
Radar Display
Forecast Discussion

FOR SITUATIONAL AWARENESS. NOT TO BE USED FOR FLIGHT PLANNING PURPOSES.